Aérodrome :
LOGIN :

S'inscrire | Disclaimer

   EN    FR    IT 

 










Légende :    VFR   VFR Marginal   IFR   IFR Intensif   IFR Très Intensif
Visi : 
Plafond : 
>= 8 km
>= 3000ft
5 à 8 km
1000 à 3000 ft
1500m à 5 km
500 à 1000 ft
800 à 1500m
200 à 500 ft
< 800m
< 200 ft
Symboles :   Orages  Brouillard  Fortes neiges  Fortes précipitations  Vent > 20 kt
SIGMETs :   Divers  Orages  Givrage  Turbulence  Onde Orograph.  Cendres Volcan.







- Altitude de l'aérodrome : 935 ft


EBFS - Florennes

DERNIER METAR :
  • 230725Z 21006KT 9999 SCT007 BKN010 13/12 Q1015 GRN GRN

METARs EXPIRÉS :
  • 230655Z 21008KT 9999 SCT008 BKN012 13/12 Q1015 GRN GRN
  • 230633Z 21006KT 9999 SCT008 BKN012 13/12 Q1014 GRN GRN
  • 230555Z 20008KT 9999 SCT009 BKN014 13/12 Q1014 GRN GRN BECMG WHT
  • 230541Z 21008KT 9999 SCT010 BKN014 13/12 Q1014 GRN GRN BECMG WHT
  • 230525Z 21010KT 9999 SCT010 BKN014 13/13 Q1014 GRN GRN TEMPO YLO
  • 230455Z 20009KT 9999 SCT007 BKN010 14/13 Q1013 GRN GRN TEMPO YLO

TAF TAF EBFS
Valide du 23 à 07h jusqu'au 23 à 16h UTC


230541Z 2307/2316 20010KT 9999 SCT012
BECMG 2308/2310 24012KT SCT018
BECMG 2311/2313 FEW025
Pas de NOTAMs connus pour ce terrain.



MET'MAP, la Météo Aéronautique d'un coup d'oeil ! - Copyright ORBIFLY Décembre 2007 - Disclaimer

ORBIFLY MET'MAP TEAM :

Programmation & Développement : Alexandra Zaïnal
Conception & Développement : Baudouin d'Aumeries
Co-Programmation & Développement : Marc-Olivier Méhu
Soutien technique & logistique : Manuel Goepfert

Contact : metmap@orbifly.com




SOURCES & CREDITS :

   NOAA